createdAt,value
2018-10-15T00:02:25.072Z,101.37
2018-10-15T00:04:57.688Z,95.63
2018-10-15T00:07:30.337Z,93.50
2018-10-15T00:10:03.433Z,94.90
2018-10-15T00:12:36.157Z,93.60
2018-10-15T00:15:25.098Z,85.33
2018-10-15T00:17:57.732Z,72.97
2018-10-15T00:20:30.356Z,63.80
2018-10-15T00:23:02.989Z,63.10
2018-10-15T00:25:35.585Z,63.63
2018-10-15T00:28:08.603Z,63.47
2018-10-15T00:30:41.243Z,62.30
2018-10-15T00:33:13.809Z,63.07
2018-10-15T00:35:46.824Z,63.03
2018-10-15T00:38:19.591Z,61.17
2018-10-15T00:40:52.189Z,61.90
2018-10-15T00:43:25.261Z,60.20
2018-10-15T00:45:57.875Z,60.17
2018-10-15T00:48:30.605Z,57.37
2018-10-15T00:51:03.190Z,54.13
2018-10-15T00:53:35.807Z,49.53
2018-10-15T00:56:08.440Z,49.17
2018-10-15T00:58:41.020Z,48.13
2018-10-15T01:01:13.601Z,47.97
2018-10-15T01:03:46.599Z,48.60
2018-10-15T01:06:19.200Z,47.90
2018-10-15T01:08:51.775Z,47.87
2018-10-15T01:11:24.473Z,47.27
2018-10-15T01:13:57.024Z,46.20
2018-10-15T01:16:29.707Z,44.90
2018-10-15T01:19:02.373Z,44.13
2018-10-15T01:21:34.949Z,41.90
2018-10-15T01:24:08.256Z,41.37
2018-10-15T01:26:45.275Z,40.03
2018-10-15T01:29:18.047Z,38.00
2018-10-15T01:31:50.671Z,34.40
2018-10-15T01:34:23.599Z,33.50
2018-10-15T01:36:56.825Z,32.03
2018-10-15T01:39:29.962Z,31.33
2018-10-15T01:42:02.571Z,32.20
2018-10-15T01:44:35.204Z,33.33
2018-10-15T01:47:07.980Z,30.57
2018-10-15T01:49:40.559Z,30.00
2018-10-15T01:52:13.162Z,31.20
2018-10-15T01:54:46.470Z,30.23
2018-10-15T01:57:19.067Z,40.47
2018-10-15T01:59:51.711Z,45.30
2018-10-15T02:02:24.364Z,44.37
2018-10-15T02:04:56.940Z,49.20
2018-10-15T02:07:30.033Z,51.83
2018-10-15T02:10:02.623Z,52.47
2018-10-15T02:12:36.435Z,50.27
2018-10-15T02:15:09.823Z,52.07
2018-10-15T02:17:42.689Z,53.60
2018-10-15T02:20:15.558Z,52.50
2018-10-15T02:22:48.448Z,54.40
2018-10-15T02:25:21.201Z,55.73
2018-10-15T02:27:53.891Z,59.53
2018-10-15T02:30:26.432Z,61.10
2018-10-15T02:32:59.158Z,62.47
2018-10-15T02:35:31.860Z,65.87
2018-10-15T02:38:04.579Z,63.83
2018-10-15T02:40:37.308Z,63.33
2018-10-15T02:43:09.933Z,62.97
2018-10-15T02:45:42.564Z,64.53
2018-10-15T02:48:15.158Z,61.37
2018-10-15T02:50:47.706Z,59.13
2018-10-15T02:53:20.400Z,55.07
2018-10-15T02:55:52.936Z,51.50
2018-10-15T02:58:25.628Z,46.63
2018-10-15T03:00:58.164Z,46.97
2018-10-15T03:03:30.738Z,46.90
2018-10-15T03:06:03.304Z,45.30
2018-10-15T03:08:35.893Z,45.40
2018-10-15T03:11:08.470Z,51.13
2018-10-15T03:13:41.052Z,51.70
2018-10-15T03:16:13.629Z,50.87
2018-10-15T03:18:46.776Z,57.33
2018-10-15T03:21:19.352Z,59.87
2018-10-15T03:23:51.890Z,56.77
2018-10-15T03:26:24.543Z,55.80
2018-10-15T03:28:57.139Z,56.13
2018-10-15T03:31:29.709Z,59.87
2018-10-15T03:34:02.291Z,57.77
2018-10-15T03:36:34.851Z,56.33
2018-10-15T03:39:10.033Z,60.40
2018-10-15T03:41:42.711Z,59.43
2018-10-15T03:44:15.267Z,55.37
2018-10-15T03:46:47.832Z,53.57
2018-10-15T03:49:20.425Z,55.60
2018-10-15T03:51:52.952Z,52.80
2018-10-15T03:54:26.067Z,49.77
2018-10-15T03:56:58.643Z,47.77
2018-10-15T03:59:31.154Z,49.13
2018-10-15T04:02:03.816Z,51.10
2018-10-15T04:04:36.693Z,51.93
2018-10-15T04:07:09.924Z,56.70
2018-10-15T04:09:42.466Z,51.90
2018-10-15T04:12:15.082Z,48.13
2018-10-15T04:14:47.751Z,44.67
2018-10-15T04:17:20.401Z,44.33
2018-10-15T04:19:52.987Z,41.43
2018-10-15T04:22:25.612Z,41.43
2018-10-15T04:24:58.655Z,38.37
2018-10-15T04:27:31.354Z,56.80
2018-10-15T04:30:06.807Z,48.93
2018-10-15T04:32:39.917Z,44.97
2018-10-15T04:35:11.865Z,47.50
2018-10-15T04:37:43.331Z,55.73
2018-10-15T04:40:16.619Z,59.63
2018-10-15T04:42:49.675Z,69.70
2018-10-15T04:45:22.442Z,77.77
2018-10-15T04:47:55.999Z,91.33
2018-10-15T04:50:28.661Z,91.53
2018-10-15T04:53:01.432Z,88.57
2018-10-15T04:55:34.424Z,81.30
2018-10-15T04:58:07.210Z,72.33
2018-10-15T05:00:39.875Z,67.77
2018-10-15T05:03:12.666Z,60.40
2018-10-15T05:05:45.372Z,55.97
2018-10-15T05:08:18.249Z,53.87
2018-10-15T05:10:50.803Z,67.53
2018-10-15T05:13:24.048Z,56.33
2018-10-15T05:15:56.685Z,57.90
2018-10-15T05:18:29.776Z,59.03
2018-10-15T05:21:02.847Z,59.40
2018-10-15T05:23:35.943Z,62.57
2018-10-15T05:26:12.850Z,89.77
2018-10-15T05:28:45.403Z,237.87
2018-10-15T05:31:18.308Z,166.33
2018-10-15T05:33:50.935Z,160.93
2018-10-15T05:36:23.612Z,155.83
2018-10-15T05:38:56.106Z,135.03
2018-10-15T05:41:29.625Z,122.17
2018-10-15T05:44:02.279Z,111.43
2018-10-15T05:46:35.192Z,105.07
2018-10-15T05:49:08.502Z,94.13
2018-10-15T05:51:41.932Z,84.33
2018-10-15T05:54:14.629Z,74.17
2018-10-15T05:56:48.058Z,77.87
2018-10-15T05:59:22.171Z,88.67
2018-10-15T06:01:55.238Z,96.77
2018-10-15T06:04:28.235Z,94.23
2018-10-15T06:07:01.239Z,102.10
2018-10-15T06:09:33.905Z,105.90
2018-10-15T06:12:14.899Z,113.77
2018-10-15T06:14:48.034Z,114.13
2018-10-15T06:17:20.666Z,114.73
2018-10-15T06:19:53.831Z,113.27
2018-10-15T06:22:26.539Z,94.47
2018-10-15T06:24:59.600Z,90.23
2018-10-15T06:27:32.868Z,89.27
2018-10-15T06:30:05.867Z,89.77
2018-10-15T06:32:38.995Z,91.13
2018-10-15T06:35:11.618Z,84.63
2018-10-15T06:37:44.175Z,74.97
2018-10-15T06:40:16.731Z,65.77
2018-10-15T06:42:49.827Z,57.27
2018-10-15T06:45:22.474Z,53.43
2018-10-15T06:47:55.373Z,50.90
2018-10-15T06:50:27.947Z,48.27
2018-10-15T06:53:00.680Z,44.37
2018-10-15T06:55:33.407Z,41.63
2018-10-15T06:58:06.249Z,38.63
2018-10-15T07:00:38.839Z,39.97
2018-10-15T07:03:11.519Z,39.80
2018-10-15T07:05:44.927Z,34.70
2018-10-15T07:08:18.193Z,34.57
2018-10-15T07:10:50.740Z,33.77
2018-10-15T07:13:24.114Z,30.90
2018-10-15T07:15:56.741Z,29.10
2018-10-15T07:18:29.663Z,26.97
2018-10-15T07:21:02.632Z,26.23
2018-10-15T07:23:35.769Z,24.57
2018-10-15T07:26:08.421Z,23.93
2018-10-15T07:28:40.943Z,22.57
2018-10-15T07:31:13.650Z,23.53
2018-10-15T07:33:46.388Z,21.43
2018-10-15T07:36:19.179Z,20.67
2018-10-15T07:38:51.712Z,19.00
2018-10-15T07:41:24.283Z,17.87
2018-10-15T07:43:56.939Z,17.77
2018-10-15T07:46:30.387Z,16.83
2018-10-15T07:49:02.865Z,16.60
2018-10-15T07:51:35.440Z,15.13
2018-10-15T07:54:08.009Z,14.67
2018-10-15T07:56:40.609Z,13.97
2018-10-15T07:59:13.385Z,13.23
2018-10-15T08:01:45.955Z,14.53
2018-10-15T08:04:18.599Z,13.63
2018-10-15T08:06:51.238Z,13.83
2018-10-15T08:09:23.905Z,13.70
2018-10-15T08:11:56.456Z,13.03
2018-10-15T08:14:29.065Z,12.80
2018-10-15T08:17:02.766Z,12.83
2018-10-15T08:19:59.198Z,12.03
2018-10-15T08:22:32.184Z,11.93
2018-10-15T08:25:06.310Z,11.60
2018-10-15T08:27:39.817Z,10.97
2018-10-15T08:30:17.719Z,11.07
2018-10-15T08:32:50.572Z,11.57
2018-10-15T08:35:23.320Z,11.10
2018-10-15T08:37:56.255Z,9.83
2018-10-15T08:40:29.083Z,10.20
2018-10-15T08:43:02.139Z,9.90
2018-10-15T08:45:35.184Z,10.40
2018-10-15T08:48:07.845Z,10.73
2018-10-15T08:50:40.400Z,10.50
2018-10-15T08:53:13.268Z,9.07
2018-10-15T08:55:45.996Z,9.50
2018-10-15T08:58:19.199Z,10.03
2018-10-15T09:00:51.852Z,9.37
2018-10-15T09:03:24.744Z,9.37
2018-10-15T09:05:57.375Z,9.10
2018-10-15T09:08:30.126Z,9.00
2018-10-15T09:11:03.419Z,9.20
2018-10-15T09:13:35.900Z,8.90
2018-10-15T09:16:08.750Z,8.80
2018-10-15T09:18:41.514Z,8.20
2018-10-15T09:21:14.217Z,7.67
2018-10-15T09:23:46.757Z,7.80
2018-10-15T09:26:20.035Z,7.77
2018-10-15T09:28:52.600Z,7.23
2018-10-15T09:31:25.238Z,6.80
2018-10-15T09:33:57.707Z,6.93
2018-10-15T09:36:30.359Z,7.40
2018-10-15T09:39:03.126Z,6.83
2018-10-15T09:41:35.645Z,7.00
2018-10-15T09:44:09.973Z,6.73
2018-10-15T09:46:42.608Z,6.60
2018-10-15T09:49:15.138Z,6.70
2018-10-15T09:51:48.168Z,6.63
2018-10-15T09:54:20.720Z,6.93
2018-10-15T09:56:53.364Z,6.97
2018-10-15T09:59:25.900Z,6.67
2018-10-15T10:02:14.495Z,6.70
2018-10-15T10:04:47.115Z,6.23
2018-10-15T10:07:19.841Z,5.93
2018-10-15T10:09:52.384Z,6.30
2018-10-15T10:12:25.168Z,6.27
2018-10-15T10:14:57.917Z,5.73
2018-10-15T10:17:30.538Z,6.10
2018-10-15T10:20:03.045Z,7.27
2018-10-15T10:22:36.380Z,8.60
2018-10-15T10:25:10.655Z,18.57
2018-10-15T10:27:43.537Z,21.57
2018-10-15T10:30:17.173Z,22.73
2018-10-15T10:32:49.825Z,23.87
2018-10-15T10:36:08.927Z,25.17
2018-10-15T10:38:58.936Z,64.27
2018-10-15T10:41:31.566Z,50.87
2018-10-15T10:44:04.097Z,43.40
2018-10-15T10:46:36.782Z,39.27
2018-10-15T10:49:09.439Z,46.00
2018-10-15T10:51:42.600Z,40.73
2018-10-15T10:54:15.573Z,37.17
2018-10-15T10:56:48.291Z,38.77
2018-10-15T10:59:20.928Z,44.43
2018-10-15T11:01:53.573Z,48.47
2018-10-15T11:04:26.159Z,48.43
2018-10-15T11:06:58.868Z,42.80
2018-10-15T11:09:31.421Z,45.67
2018-10-15T11:12:04.208Z,50.50
2018-10-15T11:14:37.052Z,67.43
2018-10-15T11:17:09.674Z,71.20
2018-10-15T11:19:42.336Z,70.40
2018-10-15T11:22:15.047Z,67.20
2018-10-15T11:24:47.560Z,73.10
2018-10-15T11:27:20.165Z,71.03
2018-10-15T11:29:52.724Z,66.50
2018-10-15T11:32:25.638Z,66.13
2018-10-15T11:34:58.379Z,65.20
2018-10-15T11:37:30.988Z,61.47
2018-10-15T11:40:03.648Z,60.57
2018-10-15T11:42:36.586Z,54.60
2018-10-15T11:45:10.315Z,49.80
2018-10-15T11:47:42.945Z,50.17
2018-10-15T11:50:15.610Z,46.93
2018-10-15T11:52:48.918Z,41.93
2018-10-15T11:55:21.580Z,38.80
2018-10-15T11:57:54.354Z,38.67
2018-10-15T12:00:26.949Z,38.63
2018-10-15T12:02:59.531Z,44.70
2018-10-15T12:05:32.096Z,55.90
2018-10-15T12:08:05.094Z,59.97
2018-10-15T12:10:37.642Z,55.53
2018-10-15T12:13:10.460Z,59.17
2018-10-15T12:15:43.331Z,54.50
2018-10-15T12:18:15.919Z,54.00
2018-10-15T12:20:48.516Z,50.80
2018-10-15T12:23:21.600Z,58.60
2018-10-15T12:25:54.319Z,59.37
2018-10-15T12:28:27.578Z,76.60
2018-10-15T12:31:02.739Z,85.80
2018-10-15T12:33:35.426Z,90.17
2018-10-15T12:36:08.125Z,83.20
2018-10-15T12:38:41.444Z,99.40
2018-10-15T12:41:14.073Z,100.57
2018-10-15T12:43:47.340Z,101.27
2018-10-15T12:46:20.424Z,95.20
2018-10-15T12:48:54.943Z,116.67
2018-10-15T12:51:28.345Z,96.73
2018-10-15T12:54:01.067Z,82.30
2018-10-15T12:56:34.884Z,73.57
2018-10-15T12:59:07.715Z,64.00
2018-10-15T13:01:41.040Z,57.97
2018-10-15T13:04:13.717Z,58.63
2018-10-15T13:06:46.274Z,61.07
2018-10-15T13:09:19.449Z,64.40
2018-10-15T13:11:55.402Z,57.43
2018-10-15T13:14:28.400Z,52.83
2018-10-15T13:17:01.707Z,43.57
2018-10-15T13:19:34.992Z,43.13
2018-10-15T13:22:07.691Z,47.87
2018-10-15T13:24:40.641Z,42.73
2018-10-15T13:27:13.823Z,39.27
2018-10-15T13:29:47.001Z,43.53
2018-10-15T13:32:19.660Z,47.83
2018-10-15T13:34:52.711Z,48.83
2018-10-15T13:37:26.087Z,48.47
2018-10-15T13:40:00.219Z,48.70
2018-10-15T13:42:32.919Z,58.40
2018-10-15T13:45:05.948Z,60.13
2018-10-15T13:47:39.570Z,51.83
2018-10-15T13:50:13.373Z,57.17
2018-10-15T13:52:46.469Z,54.67
2018-10-15T13:55:19.076Z,53.63
2018-10-15T13:57:52.004Z,54.70
2018-10-15T14:00:41.977Z,53.47
2018-10-15T14:03:20.584Z,47.27
2018-10-15T14:05:54.438Z,55.43
2018-10-15T14:08:27.299Z,56.47
2018-10-15T14:10:59.939Z,55.40
2018-10-15T14:13:33.437Z,67.13
2018-10-15T14:16:06.867Z,84.77
2018-10-15T14:18:39.502Z,90.43
2018-10-15T14:21:13.225Z,96.13
2018-10-15T19:23:30.433Z,43.47
2018-10-15T19:29:00.902Z,44.47
2018-10-15T19:31:31.224Z,50.23
2018-10-15T19:34:01.715Z,59.55
2018-10-15T19:36:32.044Z,65.45
2018-10-15T19:39:02.452Z,71.22
2018-10-15T19:41:33.042Z,70.33
2018-10-15T19:51:33.381Z,110.07
2018-10-15T19:54:04.528Z,101.40
2018-10-15T19:56:35.966Z,99.70
2018-10-15T19:59:06.888Z,96.02
2018-10-15T20:01:37.249Z,89.42
2018-10-15T20:04:07.559Z,87.25
2018-10-15T20:06:38.915Z,81.40
2018-10-15T20:09:13.501Z,75.35
2018-10-15T20:11:44.053Z,77.42
2018-10-15T20:14:14.350Z,69.30
2018-10-15T20:16:44.693Z,64.37
2018-10-15T20:19:14.994Z,60.15
2018-10-15T20:21:45.341Z,64.12
2018-10-15T20:24:15.661Z,71.67
2018-10-15T20:26:45.993Z,79.95
2018-10-15T20:29:16.317Z,90.53
2018-10-15T20:31:46.633Z,83.85
2018-10-15T20:34:16.962Z,85.80
2018-10-15T20:36:47.302Z,88.85
2018-10-15T20:39:17.862Z,84.95
2018-10-15T20:41:48.597Z,74.45
2018-10-15T20:44:18.845Z,71.07
2018-10-15T20:46:49.216Z,63.60
2018-10-15T20:49:19.525Z,60.55
2018-10-15T20:51:49.860Z,62.08
2018-10-15T20:54:20.208Z,57.33
2018-10-15T20:56:50.473Z,55.38
2018-10-15T20:59:20.801Z,52.93
2018-10-15T21:01:51.261Z,49.40
2018-10-15T21:04:21.570Z,48.42
2018-10-15T21:06:51.884Z,47.23
2018-10-15T21:09:22.248Z,46.28
2018-10-15T21:11:52.598Z,43.92
2018-10-15T21:14:22.915Z,41.53
2018-10-15T21:16:54.228Z,42.53
2018-10-15T21:19:24.542Z,52.75
2018-10-15T21:21:54.968Z,60.63
2018-10-15T21:24:26.348Z,66.45
2018-10-15T21:27:00.426Z,72.05
2018-10-15T21:29:31.198Z,59.10
2018-10-15T21:32:01.553Z,55.75
2018-10-15T21:34:31.954Z,55.15
2018-10-15T21:37:03.005Z,62.35
2018-10-15T21:39:34.177Z,73.62
2018-10-15T21:42:04.664Z,73.55
2018-10-15T21:44:35.133Z,74.00
2018-10-15T21:47:05.741Z,71.80
2018-10-15T21:49:36.148Z,66.02
2018-10-15T21:52:07.822Z,65.45
2018-10-15T21:54:38.117Z,59.67
2018-10-15T21:57:08.432Z,58.35
2018-10-15T21:59:39.030Z,55.33
2018-10-15T22:02:09.411Z,56.08
2018-10-15T22:04:39.709Z,53.73
2018-10-15T22:07:10.073Z,50.80
2018-10-15T22:09:40.398Z,48.80
2018-10-15T22:12:10.646Z,47.03
2018-10-15T22:14:41.029Z,47.95
2018-10-15T22:17:11.317Z,45.60
2018-10-15T22:19:41.651Z,44.42
2018-10-15T22:22:11.917Z,43.10
2018-10-15T22:24:42.202Z,41.65
2018-10-15T22:27:12.450Z,40.60
2018-10-15T22:29:42.751Z,39.23
2018-10-15T22:32:13.057Z,38.75
2018-10-15T22:34:43.397Z,39.55
2018-10-15T22:37:13.733Z,38.60
2018-10-15T22:39:44.070Z,37.28
2018-10-15T22:42:14.377Z,40.35
2018-10-15T22:44:44.709Z,47.05
2018-10-15T22:47:15.026Z,56.50
2018-10-15T22:49:45.412Z,59.90
2018-10-15T22:52:15.705Z,60.10
2018-10-15T22:54:46.021Z,58.80
2018-10-15T22:57:16.401Z,56.73
2018-10-15T22:59:46.805Z,56.05
2018-10-15T23:02:17.161Z,53.52
2018-10-15T23:04:47.717Z,50.95
2018-10-15T23:07:18.148Z,50.20
2018-10-15T23:09:48.480Z,46.48
2018-10-15T23:12:18.785Z,46.05
2018-10-15T23:14:49.082Z,44.45
2018-10-15T23:17:19.393Z,42.40
2018-10-15T23:19:49.749Z,43.65
2018-10-15T23:22:20.113Z,40.92
2018-10-15T23:24:50.385Z,39.63
2018-10-15T23:27:20.761Z,41.15
2018-10-15T23:29:51.208Z,49.58
2018-10-15T23:32:21.545Z,57.30
2018-10-15T23:34:52.193Z,64.37
2018-10-15T23:37:22.526Z,67.58
2018-10-15T23:39:52.873Z,64.82
2018-10-15T23:42:23.185Z,62.17
2018-10-15T23:44:53.513Z,59.77
2018-10-15T23:47:23.902Z,56.88
2018-10-15T23:49:54.293Z,55.85
2018-10-15T23:52:24.651Z,54.67
2018-10-15T23:54:55.509Z,51.13
2018-10-15T23:57:25.885Z,49.35
2018-10-15T23:59:57.217Z,47.95
